Sedov — UELO — position and weather

sailwx.info

Track history (hours):
 
Tides and Currents Weather Stations Pressure Air Temp Water Temp Dewpoint Dewpoint Depression Visibility Wind Speed Wind Dir Waves Ship Positions

Sedov (Russia)

Last reported at 2014-Jul-31 11:27 UTC. Time now 2014-Jul-31 17:43 UTC.
Position N 54°14' E 005°24'.

Length 118 m; draft 6.5 m.

Type: Sailing vessel. MMSI: 273510000.

Date/timePositionNaut miles runAvg speedWind from/ knotsBaromVisibWave heightAir tempDewpointWater temp
2014-Jul-31 11:27N 54°14' E 005°24'2 1.8
2014-Jul-31 10:32N 54°14' E 005°21'4 3.3
2014-Jul-31 09:15N 54°12' E 005°15'1010.3
2014-Jul-31 08:14N 54°06' E 005°01'7 9.6
2014-Jul-31 07:29N 53°59' E 004°55'9 9.5
2014-Jul-31 06:31N 53°50' E 004°53'20 9.2
2014-Jul-31 04:25N 53°31' E 004°46'8 8.5
2014-Jul-31 03:28N 53°24' E 004°41'9 8.9
2014-Jul-31 02:28N 53°16' E 004°34'8 8.8
2014-Jul-31 01:33N 53°09' E 004°29'9 8.8
2014-Jul-31 00:33N 53°01' E 004°22'11610.1
2014-Jul-30 13:03N 51°33' E 002°18'5 9.3
2014-Jul-30 12:29N 51°29' E 002°13'7 7.8
2014-Jul-30 11:33N 51°23' E 002°07'7 7.1
2014-Jul-30 10:33N 51°16' E 002°05'6 6.2
2014-Jul-30 09:33N 51°12' E 001°58'7 6.5
2014-Jul-30 08:34N 51°08' E 001°49'6 6.1
2014-Jul-30 07:33N 51°04' E 001°42'7 6.5
2014-Jul-30 06:33N 50°59' E 001°35'7 7.0
2014-Jul-30 05:33N 50°54' E 001°28'7 7.5
2014-Jul-30 04:33N 50°47' E 001°24'8 8.1
2014-Jul-30 03:33N 50°40' E 001°18'20 9.3
2014-Jul-30 01:26N 50°27' E 000°54'10 9.5
2014-Jul-30 00:24N 50°25' E 000°39'910.6
2014-Jul-29 23:32N 50°23' E 000°25'1211.9
2014-Jul-29 22:33N 50°20' E 000°07'1312.3
2014-Jul-29 21:27N 50°16' W 000°13'2210.7
2014-Jul-29 19:25N 50°10' W 000°46'6 7.1
2014-Jul-29 18:33N 50°09' W 000°55'5 5.4
2014-Jul-29 17:34N 50°07' W 001°03'6 4.1
2014-Jul-29 16:09N 50°06' W 001°12'2 3.1
2014-Jul-29 15:33N 50°05' W 001°15'  
Track history (hours):
 
Tides and Currents Weather Stations Pressure Air Temp Water Temp Dewpoint Dewpoint Depression Visibility Wind Speed Wind Dir Waves Ship Positions

Sedov (Russia)

Last reported at 2014-Jul-31 11:27 UTC. Time now 2014-Jul-31 17:43 UTC.
Position N 54°14' E 005°24'.

Length 118 m; draft 6.5 m.

Type: Sailing vessel. MMSI: 273510000.

Date/timePositionNaut miles runAvg speedWind from/ knotsBaromVisibWave heightAir tempDewpointWater temp
2014-Jul-31 11:27N 54°14' E 005°24'2 1.8
2014-Jul-31 10:32N 54°14' E 005°21'4 3.3
2014-Jul-31 09:15N 54°12' E 005°15'1010.3
2014-Jul-31 08:14N 54°06' E 005°01'7 9.6
2014-Jul-31 07:29N 53°59' E 004°55'9 9.5
2014-Jul-31 06:31N 53°50' E 004°53'20 9.2
2014-Jul-31 04:25N 53°31' E 004°46'8 8.5
2014-Jul-31 03:28N 53°24' E 004°41'9 8.9
2014-Jul-31 02:28N 53°16' E 004°34'8 8.8
2014-Jul-31 01:33N 53°09' E 004°29'9 8.8
2014-Jul-31 00:33N 53°01' E 004°22'11610.1
2014-Jul-30 13:03N 51°33' E 002°18'5 9.3
2014-Jul-30 12:29N 51°29' E 002°13'7 7.8
2014-Jul-30 11:33N 51°23' E 002°07'7 7.1
2014-Jul-30 10:33N 51°16' E 002°05'6 6.2
2014-Jul-30 09:33N 51°12' E 001°58'7 6.5
2014-Jul-30 08:34N 51°08' E 001°49'6 6.1
2014-Jul-30 07:33N 51°04' E 001°42'7 6.5
2014-Jul-30 06:33N 50°59' E 001°35'7 7.0
2014-Jul-30 05:33N 50°54' E 001°28'7 7.5
2014-Jul-30 04:33N 50°47' E 001°24'8 8.1
2014-Jul-30 03:33N 50°40' E 001°18'20 9.3
2014-Jul-30 01:26N 50°27' E 000°54'10 9.5
2014-Jul-30 00:24N 50°25' E 000°39'910.6
2014-Jul-29 23:32N 50°23' E 000°25'1211.9
2014-Jul-29 22:33N 50°20' E 000°07'1312.3
2014-Jul-29 21:27N 50°16' W 000°13'2210.7
2014-Jul-29 19:25N 50°10' W 000°46'6 7.1
2014-Jul-29 18:33N 50°09' W 000°55'5 5.4
2014-Jul-29 17:34N 50°07' W 001°03'6 4.1
2014-Jul-29 16:09N 50°06' W 001°12'2 3.1
2014-Jul-29 15:33N 50°05' W 001°15'  

Dump ship's entire track history